Cyprus Cement — C6UP5 — position and weather

sailwx.info

Track history (hours):
 
Tides and Currents Weather Stations Pressure Air Temp Water Temp Dewpoint Dewpoint Depression Visibility Wind Speed Wind Dir Waves Ship Positions

Cyprus Cement

Last reported at 2015-Feb-01 04:26 UTC. Time now 2015-Feb-01 10:12 UTC.
Position N 58°30' E 010°11'.

Length 97 m; draft 4.8 m.

Type: Cargo ship. MMSI: 311988000.

Date/timePositionNaut miles runAvg speedWind from/ knotsBaromVisibWave heightAir tempDewpointWater temp
2015-Feb-01 04:26N 58°30' E 010°11'910.1
2015-Feb-01 03:33N 58°21' E 010°17'10 9.8
2015-Feb-01 02:33N 58°12' E 010°25'10 9.6
2015-Feb-01 01:33N 58°04' E 010°32'9 9.3
2015-Feb-01 00:33N 57°55' E 010°39'9 9.3
2015-Jan-31 23:33N 57°46' E 010°46'7 5.5
2015-Jan-31 22:14N 57°42' E 010°35'0 0.0
2015-Jan-31 21:31N 57°42' E 010°35'0 0.0
2015-Jan-31 20:31N 57°42' E 010°35'0 0.0
2015-Jan-31 19:30N 57°42' E 010°35'5 5.6
2015-Jan-31 18:33N 57°40' E 010°44'1211.9
2015-Jan-31 17:33N 57°34' E 011°04'1212.3
2015-Jan-31 16:33N 57°29' E 011°24'1211.6
2015-Jan-31 15:34N 57°18' E 011°33'1212.0
2015-Jan-31 14:33N 57°07' E 011°40'1211.8
2015-Jan-31 13:33N 56°56' E 011°47'1312.6
2015-Jan-31 12:34N 56°44' E 011°54'1211.6
2015-Jan-31 11:34N 56°32' E 011°59'1211.7
2015-Jan-31 10:34N 56°23' E 012°11'1312.7
2015-Jan-31 09:33N 56°13' E 012°25'1413.9
2015-Jan-31 08:33N 56°02' E 012°40'1212.5
2015-Jan-31 07:33N 55°49' E 012°44'1313.0
2015-Jan-31 06:33N 55°36' E 012°42'1010.4
2015-Jan-31 05:33N 55°26' E 012°42'1211.7
2015-Jan-31 04:33N 55°14' E 012°40'1211.5
2015-Jan-31 03:32N 55°05' E 012°51'2311.7
2015-Jan-31 01:33N 54°50' E 013°22'1211.7
2015-Jan-31 00:33N 54°42' E 013°38'1212.2
2015-Jan-30 23:33N 54°31' E 013°48'1212.2
2015-Jan-30 22:33N 54°21' E 013°58'1111.4
2015-Jan-30 21:33N 54°13' E 014°12'1212.0
2015-Jan-30 20:33N 54°01' E 014°15'4 3.5
2015-Jan-30 19:33N 53°58' E 014°17'5 4.6
2015-Jan-30 18:33N 53°53' E 014°16'7 7.3
2015-Jan-30 17:33N 53°47' E 014°22'1211.5
2015-Jan-30 16:33N 53°38' E 014°34'  
2015-Jan-22 09:13N 53°27' E 014°36'0 0.0
2015-Jan-22 08:31N 53°27' E 014°36'0 0.0
2015-Jan-22 07:31N 53°27' E 014°36'0 0.0
2015-Jan-22 06:31N 53°27' E 014°36'0 0.0
2015-Jan-22 05:31N 53°27' E 014°36'0 0.0
2015-Jan-22 04:31N 53°27' E 014°36'  
Track history (hours):
 
Tides and Currents Weather Stations Pressure Air Temp Water Temp Dewpoint Dewpoint Depression Visibility Wind Speed Wind Dir Waves Ship Positions

Cyprus Cement

Last reported at 2015-Feb-01 04:26 UTC. Time now 2015-Feb-01 10:12 UTC.
Position N 58°30' E 010°11'.

Length 97 m; draft 4.8 m.

Type: Cargo ship. MMSI: 311988000.

Date/timePositionNaut miles runAvg speedWind from/ knotsBaromVisibWave heightAir tempDewpointWater temp
2015-Feb-01 04:26N 58°30' E 010°11'910.1
2015-Feb-01 03:33N 58°21' E 010°17'10 9.8
2015-Feb-01 02:33N 58°12' E 010°25'10 9.6
2015-Feb-01 01:33N 58°04' E 010°32'9 9.3
2015-Feb-01 00:33N 57°55' E 010°39'9 9.3
2015-Jan-31 23:33N 57°46' E 010°46'7 5.5
2015-Jan-31 22:14N 57°42' E 010°35'0 0.0
2015-Jan-31 21:31N 57°42' E 010°35'0 0.0
2015-Jan-31 20:31N 57°42' E 010°35'0 0.0
2015-Jan-31 19:30N 57°42' E 010°35'5 5.6
2015-Jan-31 18:33N 57°40' E 010°44'1211.9
2015-Jan-31 17:33N 57°34' E 011°04'1212.3
2015-Jan-31 16:33N 57°29' E 011°24'1211.6
2015-Jan-31 15:34N 57°18' E 011°33'1212.0
2015-Jan-31 14:33N 57°07' E 011°40'1211.8
2015-Jan-31 13:33N 56°56' E 011°47'1312.6
2015-Jan-31 12:34N 56°44' E 011°54'1211.6
2015-Jan-31 11:34N 56°32' E 011°59'1211.7
2015-Jan-31 10:34N 56°23' E 012°11'1312.7
2015-Jan-31 09:33N 56°13' E 012°25'1413.9
2015-Jan-31 08:33N 56°02' E 012°40'1212.5
2015-Jan-31 07:33N 55°49' E 012°44'1313.0
2015-Jan-31 06:33N 55°36' E 012°42'1010.4
2015-Jan-31 05:33N 55°26' E 012°42'1211.7
2015-Jan-31 04:33N 55°14' E 012°40'1211.5
2015-Jan-31 03:32N 55°05' E 012°51'2311.7
2015-Jan-31 01:33N 54°50' E 013°22'1211.7
2015-Jan-31 00:33N 54°42' E 013°38'1212.2
2015-Jan-30 23:33N 54°31' E 013°48'1212.2
2015-Jan-30 22:33N 54°21' E 013°58'1111.4
2015-Jan-30 21:33N 54°13' E 014°12'1212.0
2015-Jan-30 20:33N 54°01' E 014°15'4 3.5
2015-Jan-30 19:33N 53°58' E 014°17'5 4.6
2015-Jan-30 18:33N 53°53' E 014°16'7 7.3
2015-Jan-30 17:33N 53°47' E 014°22'1211.5
2015-Jan-30 16:33N 53°38' E 014°34'  
2015-Jan-22 09:13N 53°27' E 014°36'0 0.0
2015-Jan-22 08:31N 53°27' E 014°36'0 0.0
2015-Jan-22 07:31N 53°27' E 014°36'0 0.0
2015-Jan-22 06:31N 53°27' E 014°36'0 0.0
2015-Jan-22 05:31N 53°27' E 014°36'0 0.0
2015-Jan-22 04:31N 53°27' E 014°36'  

Dump ship's entire track history